createdAt,value
2022-08-03T00:03:58.768Z,7.9
2022-08-03T00:08:58.847Z,7.9
2022-08-03T00:13:58.796Z,7.9
2022-08-03T00:24:08.662Z,8.1
2022-08-03T00:28:59.060Z,8.2
2022-08-03T00:34:03.421Z,8.1
2022-08-03T00:38:58.827Z,7.9
2022-08-03T00:43:58.821Z,8.1
2022-08-03T00:48:58.862Z,8.1
2022-08-03T00:53:58.812Z,7.9
2022-08-03T00:58:58.837Z,7.9
2022-08-03T01:03:58.853Z,7.9
2022-08-03T01:08:58.827Z,7.9
2022-08-03T01:14:04.388Z,7.9
2022-08-03T01:18:58.816Z,7.9
2022-08-03T01:23:58.801Z,8.1
2022-08-03T01:28:58.835Z,8.1
2022-08-03T01:33:58.795Z,9.4
2022-08-03T01:38:58.827Z,9.4
2022-08-03T01:44:28.767Z,9.4
2022-08-03T01:48:58.831Z,9
2022-08-03T01:53:58.922Z,9
2022-08-03T01:58:58.841Z,9
2022-08-03T02:04:01.826Z,9.7
2022-08-03T02:08:58.821Z,9.7
2022-08-03T02:13:58.844Z,9.7
2022-08-03T02:18:58.818Z,9.7
2022-08-03T02:23:58.817Z,9.8
2022-08-03T02:29:01.855Z,9.8
2022-08-03T02:33:58.822Z,9.7
2022-08-03T02:39:01.879Z,9.5
2022-08-03T02:44:06.734Z,9.3
2022-08-03T02:48:58.910Z,9.5
2022-08-03T02:53:58.973Z,9.3
2022-08-03T02:58:58.913Z,9.3
2022-08-03T03:03:58.817Z,9.7
2022-08-03T03:09:01.844Z,9.7
2022-08-03T03:13:58.890Z,10.1
2022-08-03T03:18:58.865Z,10.3
2022-08-03T03:23:59.427Z,10.5
2022-08-03T03:28:58.844Z,10.5
2022-08-03T03:33:58.810Z,10.5
2022-08-03T03:38:58.887Z,10.5
2022-08-03T03:43:58.874Z,9.9
2022-08-03T03:48:58.911Z,9.9
2022-08-03T03:53:58.990Z,9.9
2022-08-03T03:58:58.872Z,9.9
2022-08-03T04:03:58.871Z,9.9
2022-08-03T04:08:58.846Z,10
2022-08-03T04:14:02.248Z,10
2022-08-03T04:18:58.894Z,10
2022-08-03T04:23:58.869Z,10
2022-08-03T04:28:58.869Z,9.6
2022-08-03T04:33:58.898Z,9.6
2022-08-03T04:38:58.861Z,9.6
2022-08-03T04:43:58.872Z,9.6
2022-08-03T04:53:58.944Z,9.9
2022-08-03T05:03:58.944Z,9.9
2022-08-03T05:08:58.900Z,9.5
2022-08-03T05:13:58.911Z,9.9
2022-08-03T05:18:58.894Z,9.5
2022-08-03T05:23:58.879Z,9.3
2022-08-03T05:28:58.917Z,9.2
2022-08-03T05:33:58.886Z,9.2
2022-08-03T05:39:02.850Z,9.3
2022-08-03T05:43:58.878Z,11.8
2022-08-03T05:48:58.974Z,12.2
2022-08-03T05:54:05.989Z,12.2
2022-08-03T05:59:22.660Z,12.2
2022-08-03T06:03:58.964Z,12.2
2022-08-03T06:08:58.889Z,10.5
2022-08-03T06:13:58.965Z,8.4
2022-08-03T06:19:01.686Z,7.5
2022-08-03T06:23:58.909Z,7.5
2022-08-03T06:34:31.725Z,7.3
2022-08-03T06:38:58.953Z,7.3
2022-08-03T06:44:04.428Z,7
2022-08-03T06:48:58.942Z,8
2022-08-03T06:53:58.937Z,8
2022-08-03T06:58:58.970Z,6.7
2022-08-03T07:03:58.919Z,6.6
2022-08-03T07:09:01.917Z,6.5
2022-08-03T07:13:58.951Z,6.4
2022-08-03T07:18:58.941Z,5.9
2022-08-03T07:23:58.990Z,5.9
2022-08-03T07:28:58.942Z,5.9
2022-08-03T07:33:58.978Z,6.4
2022-08-03T07:38:58.932Z,5.9
2022-08-03T07:43:59.005Z,5.9
2022-08-03T07:49:02.039Z,6.2
2022-08-03T07:53:58.994Z,6.3
2022-08-03T10:04:44.723Z,3.2
2022-08-03T10:09:44.724Z,2.6
2022-08-03T10:14:44.714Z,3.2
2022-08-03T10:19:44.731Z,3.2
2022-08-03T10:24:44.844Z,3.2
2022-08-03T10:34:45.764Z,2.7
2022-08-03T10:39:44.743Z,2.7
2022-08-03T10:44:44.723Z,2.7
2022-08-03T10:49:44.746Z,2.7
2022-08-03T10:54:47.884Z,2.7
2022-08-03T10:59:44.725Z,2.7
2022-08-03T11:04:44.722Z,2.6
2022-08-03T11:19:56.529Z,3
2022-08-03T11:24:48.738Z,2.45
2022-08-03T11:29:48.771Z,2.6
2022-08-03T11:34:48.730Z,2.8
2022-08-03T11:39:48.735Z,2.6
2022-08-03T11:49:48.724Z,2.6
2022-08-03T11:54:56.510Z,2.6
2022-08-03T12:04:49.186Z,3.1
2022-08-03T12:09:48.776Z,2.9
2022-08-03T12:14:52.394Z,2.9
2022-08-03T12:44:54.596Z,2.8
2022-08-03T12:49:48.852Z,1.95
2022-08-03T12:54:48.775Z,2.8
2022-08-03T12:59:53.017Z,2
2022-08-03T13:04:48.837Z,2.8
2022-08-03T13:09:52.196Z,2.85
2022-08-03T13:14:49.782Z,2.8
2022-08-03T13:19:48.811Z,1.9
2022-08-03T13:24:48.805Z,1.9
2022-08-03T13:29:48.820Z,1.2
2022-08-03T13:34:49.029Z,1.6
2022-08-03T13:40:00.055Z,1.6
2022-08-03T13:44:48.786Z,1.6
2022-08-03T13:49:54.434Z,1.6
2022-08-03T13:54:48.872Z,1.6
2022-08-03T13:59:48.783Z,1.6
2022-08-03T14:04:48.776Z,2.3
2022-08-03T14:09:48.833Z,2.3
2022-08-03T14:14:48.859Z,2.4
2022-08-03T14:19:52.814Z,1.8
2022-08-03T14:24:49.994Z,1.8
2022-08-03T14:29:48.840Z,2.4
2022-08-03T14:34:48.903Z,2.4
2022-08-03T14:40:00.155Z,2.3
2022-08-03T14:44:48.799Z,2.4
2022-08-03T14:50:29.944Z,2.6
2022-08-03T14:54:48.829Z,2.6
2022-08-03T14:59:54.049Z,2.6
2022-08-03T15:04:48.866Z,2.4
2022-08-03T15:09:48.892Z,2.4
2022-08-03T15:14:48.813Z,2.4
2022-08-03T15:19:59.931Z,1.9
2022-08-03T15:24:48.821Z,1.9
2022-08-03T15:30:04.593Z,1.9
2022-08-03T15:34:51.908Z,1.9
2022-08-03T15:39:58.579Z,2.8
2022-08-03T15:44:48.823Z,1.9
2022-08-03T15:49:48.845Z,2.7
2022-08-03T15:54:49.654Z,2.7
2022-08-03T15:59:48.930Z,2.8
2022-08-03T16:04:48.911Z,2.7
2022-08-03T16:09:48.872Z,2.4
2022-08-03T16:14:53.287Z,2.1
2022-08-03T16:19:48.927Z,2.4
2022-08-03T16:24:48.917Z,2.4
2022-08-03T16:29:48.876Z,2.4
2022-08-03T16:34:48.837Z,2.1
2022-08-03T16:39:48.973Z,2.4
2022-08-03T16:44:48.869Z,2.1
2022-08-03T16:49:53.554Z,1.9
2022-08-03T16:54:53.315Z,1.9
2022-08-03T16:59:51.930Z,1.9
2022-08-03T17:04:48.909Z,2.1
2022-08-03T17:09:50.078Z,2.3
2022-08-03T17:14:48.852Z,2.2
2022-08-03T17:19:54.139Z,2.2
2022-08-03T17:24:49.035Z,2.3
2022-08-03T17:29:48.917Z,2.2
2022-08-03T17:34:48.876Z,2.2
2022-08-03T17:39:58.984Z,2.3
2022-08-03T17:44:50.551Z,2.2
2022-08-03T17:49:49.922Z,2.6
2022-08-03T17:55:06.879Z,3
2022-08-03T17:59:54.163Z,3
2022-08-03T18:04:52.231Z,3.4
2022-08-03T18:10:05.510Z,3.4
2022-08-03T18:14:57.453Z,3.4
2022-08-03T18:20:01.665Z,3.4
2022-08-03T18:24:48.960Z,3.7
2022-08-03T18:29:49.961Z,4.2
2022-08-03T18:34:53.278Z,4.2
2022-08-03T18:44:52.885Z,4.2
2022-08-03T18:49:48.974Z,4.4
2022-08-03T18:54:59.213Z,4.4
2022-08-03T18:59:51.193Z,4.4
2022-08-03T19:04:48.985Z,4.2
2022-08-03T19:09:48.913Z,4.4
2022-08-03T19:14:50.723Z,4.4
2022-08-03T19:19:49.936Z,4.1
2022-08-03T19:24:48.955Z,3.8
2022-08-03T19:29:59.732Z,3.2
2022-08-03T19:34:50.021Z,3.8
2022-08-03T19:39:56.489Z,4.5
2022-08-03T19:44:52.077Z,3.9
2022-08-03T19:49:57.720Z,3.9
2022-08-03T19:54:53.537Z,4.6
2022-08-03T19:59:51.970Z,5.3
2022-08-03T20:04:51.915Z,5.3
2022-08-03T20:09:54.460Z,5.3
2022-08-03T20:14:51.943Z,4.6
2022-08-03T20:19:49.040Z,4.6
2022-08-03T20:24:52.773Z,4.2
2022-08-03T20:30:05.075Z,4.2
2022-08-03T20:34:49.952Z,4.2
2022-08-03T20:39:50.180Z,4.3
2022-08-03T20:44:54.231Z,4.3
2022-08-03T20:49:48.995Z,4.8
2022-08-03T20:54:49.010Z,5.6
2022-08-03T20:59:52.010Z,5.6
2022-08-03T21:04:51.470Z,5.6
2022-08-03T21:09:52.170Z,5.6
2022-08-03T21:14:52.373Z,4.8
2022-08-03T21:19:52.567Z,4.8
2022-08-03T21:24:54.407Z,4.8
2022-08-03T21:29:52.749Z,4.4
2022-08-03T21:34:48.999Z,4.1
2022-08-03T21:39:52.357Z,4.4
2022-08-03T21:44:49.015Z,4.6
2022-08-03T21:50:08.141Z,4.6
2022-08-03T21:54:48.979Z,4.6
2022-08-03T21:59:49.009Z,4.6
2022-08-03T22:04:55.837Z,6.2
2022-08-03T22:09:52.041Z,6.2
2022-08-03T22:14:53.564Z,6.2
2022-08-03T22:19:49.020Z,5
2022-08-03T22:24:55.963Z,5
2022-08-03T22:29:49.038Z,5.2
2022-08-03T22:34:49.034Z,5
2022-08-03T22:39:49.054Z,4.8
2022-08-03T22:44:53.420Z,4.8
2022-08-03T22:50:31.073Z,4.7
2022-08-03T22:54:49.071Z,4.7
2022-08-03T22:59:49.045Z,4.3
2022-08-03T23:04:49.028Z,4.3
2022-08-03T23:09:49.143Z,4.3
2022-08-03T23:14:49.032Z,4.2
2022-08-03T23:19:50.625Z,4.3
2022-08-03T23:24:49.015Z,4.4
2022-08-03T23:29:49.097Z,5
2022-08-03T23:34:49.088Z,5
2022-08-03T23:39:49.506Z,5.4
2022-08-03T23:44:49.049Z,5
2022-08-03T23:49:49.040Z,5
2022-08-03T23:54:49.055Z,5
2022-08-03T23:59:49.036Z,5
